Time;durP1;ratioP1;P1;durP2;ratioP2;P2;SDS_P1;SDS_P2;PMS_P1;PMS_P2;Temp;Humidity;BMP_temperature;BMP_pressure;BME280_temperature;BME280_humidity;BME280_pressure;Samples;Min_cycle;Max_cycle;Signal;HPM_P1;HPM_P2
2023/02/17 03:01:33;;;;;;;8.63;8.03;;;9.80;99.90;;;;;;5575248;23;20237;-81
2023/02/17 03:04:08;;;;;;;14.37;8.00;;;9.80;99.90;;;;;;4969229;28;20216;-82
2023/02/17 03:06:41;;;;;;;8.17;7.57;;;9.80;99.90;;;;;;4957587;28;20206;-82
2023/02/17 03:09:11;;;;;;;8.63;7.93;;;9.80;99.90;;;;;;4958569;28;20312;-82
2023/02/17 03:11:39;;;;;;;8.47;7.67;;;9.80;99.90;;;;;;4945804;29;20728;-82
2023/02/17 03:14:08;;;;;;;9.10;8.20;;;9.80;99.90;;;;;;4934549;29;20204;-82
2023/02/17 03:16:38;;;;;;;8.27;7.60;;;9.80;99.90;;;;;;4957820;29;20191;-82
2023/02/17 03:19:05;;;;;;;8.53;7.60;;;9.70;99.90;;;;;;4941679;29;20579;-82
2023/02/17 03:21:37;;;;;;;8.90;8.10;;;9.70;99.90;;;;;;4959443;28;20598;-82
2023/02/17 03:24:05;;;;;;;8.50;7.77;;;9.70;99.90;;;;;;4940439;29;20212;-82
2023/02/17 03:26:32;;;;;;;8.70;8.00;;;9.70;99.90;;;;;;4935590;29;20226;-82
2023/02/17 03:28:58;;;;;;;8.80;8.00;;;9.70;99.90;;;;;;4960143;28;20307;-82
2023/02/17 03:31:26;;;;;;;8.80;8.00;;;9.60;99.90;;;;;;4940088;29;20225;-82
2023/02/17 03:33:54;;;;;;;9.03;8.20;;;9.60;99.90;;;;;;4940280;29;20239;-82
2023/02/17 03:36:20;;;;;;;8.20;7.40;;;9.60;99.90;;;;;;4960488;28;20195;-82
2023/02/17 03:38:47;;;;;;;10.60;7.80;;;9.60;99.90;;;;;;4945856;29;20227;-81
2023/02/17 03:41:14;;;;;;;9.10;8.30;;;9.60;99.90;;;;;;4941690;29;20235;-82
2023/02/17 03:43:41;;;;;;;8.70;8.00;;;9.60;99.90;;;;;;4947671;29;20194;-78
2023/02/17 03:46:11;;;;;;;8.97;8.17;;;9.70;99.90;;;;;;4955791;29;20234;-79
2023/02/17 03:48:37;;;;;;;8.60;7.90;;;9.60;99.90;;;;;;4952740;29;20196;-79
2023/02/17 03:51:12;;;;;;;9.03;8.23;;;9.70;99.90;;;;;;4967153;29;20224;-78
2023/02/17 03:53:39;;;;;;;8.60;8.00;;;9.70;99.90;;;;;;4956995;29;20183;-82
2023/02/17 03:56:06;;;;;;;9.03;8.30;;;9.70;99.90;;;;;;4949510;29;20196;-77
2023/02/17 03:58:33;;;;;;;8.73;7.90;;;9.70;99.90;;;;;;4940141;29;20204;-78
2023/02/17 04:01:00;;;;;;;8.67;7.87;;;9.70;99.90;;;;;;4946110;29;20231;-78
2023/02/17 04:03:26;;;;;;;8.53;7.90;;;9.70;99.90;;;;;;4942240;29;20207;-78
2023/02/17 04:05:54;;;;;;;9.30;8.50;;;9.70;99.90;;;;;;4935902;29;20251;-78
2023/02/17 04:08:22;;;;;;;8.67;7.97;;;9.70;99.90;;;;;;4943880;29;20203;-79
2023/02/17 04:10:52;;;;;;;9.20;8.30;;;9.70;99.90;;;;;;4945203;29;20746;-78
2023/02/17 04:13:18;;;;;;;9.23;8.30;;;9.60;99.90;;;;;;4945287;29;20737;-79
2023/02/17 04:15:45;;;;;;;9.13;8.37;;;9.60;99.90;;;;;;4960094;29;20206;-78
2023/02/17 04:18:12;;;;;;;9.10;8.30;;;9.50;99.90;;;;;;4944683;29;20203;-79
2023/02/17 04:20:39;;;;;;;8.67;7.97;;;9.50;99.90;;;;;;4954809;29;20187;-81
2023/02/17 04:23:06;;;;;;;9.17;8.37;;;9.50;99.90;;;;;;4936573;29;20665;-82
2023/02/17 04:25:35;;;;;;;8.50;7.80;;;9.50;99.90;;;;;;4938310;29;20266;-82
2023/02/17 04:28:02;;;;;;;8.97;8.17;;;9.40;99.90;;;;;;4931470;29;20844;-81
2023/02/17 04:30:29;;;;;;;8.70;7.90;;;9.40;99.90;;;;;;4938964;29;20231;-82
2023/02/17 04:32:56;;;;;;;8.90;8.10;;;9.40;99.90;;;;;;4938964;29;20211;-84
2023/02/17 04:35:23;;;;;;;8.83;8.03;;;9.40;99.90;;;;;;4937487;29;20203;-81
2023/02/17 04:37:50;;;;;;;8.87;8.23;;;9.30;99.90;;;;;;4938837;29;20238;-82
2023/02/17 04:40:17;;;;;;;9.13;8.40;;;9.30;99.90;;;;;;4934977;29;20215;-81
2023/02/17 04:42:45;;;;;;;8.67;7.93;;;9.30;99.90;;;;;;4934282;29;20262;-82
2023/02/17 04:45:13;;;;;;;8.50;7.80;;;9.30;99.90;;;;;;4943069;29;20237;-79
2023/02/17 04:47:40;;;;;;;8.97;8.10;;;9.30;99.90;;;;;;4940562;29;20222;-80
2023/02/17 04:50:09;;;;;;;8.80;8.13;;;9.30;99.90;;;;;;4938151;29;20204;-80
2023/02/17 04:52:36;;;;;;;8.87;8.17;;;9.30;99.90;;;;;;4940941;29;20251;-81
2023/02/17 04:55:04;;;;;;;8.40;7.70;;;9.30;99.90;;;;;;4955014;28;20266;-80
2023/02/17 04:57:31;;;;;;;9.13;8.23;;;9.20;99.90;;;;;;4954911;28;20227;-80
2023/02/17 04:59:59;;;;;;;9.37;8.47;;;9.20;99.90;;;;;;4938576;29;20212;-80
2023/02/17 05:02:27;;;;;;;9.53;8.73;;;9.20;99.90;;;;;;4955686;28;20286;-81
2023/02/17 05:04:54;;;;;;;8.53;7.93;;;9.20;99.90;;;;;;4955295;28;20229;-80
2023/02/17 05:07:20;;;;;;;9.63;8.80;;;9.20;99.90;;;;;;4940349;29;20211;-81
2023/02/17 05:09:47;;;;;;;9.47;8.77;;;9.10;99.90;;;;;;4939910;29;20629;-80
2023/02/17 05:12:14;;;;;;;9.53;8.83;;;9.10;99.90;;;;;;4938973;29;20286;-81
2023/02/17 05:14:42;;;;;;;10.03;9.13;;;9.00;99.90;;;;;;4932561;29;20204;-81
2023/02/17 05:17:10;;;;;;;9.47;8.77;;;9.00;99.90;;;;;;4955070;28;20227;-80
2023/02/17 05:19:37;;;;;;;11.90;9.77;;;9.00;99.90;;;;;;4939962;29;20199;-81
2023/02/17 05:22:04;;;;;;;10.17;9.30;;;9.00;99.90;;;;;;4938901;29;20230;-81
2023/02/17 05:24:30;;;;;;;10.33;9.53;;;9.00;99.90;;;;;;4939546;29;20207;-81
2023/02/17 05:26:57;;;;;;;9.80;8.90;;;9.00;99.90;;;;;;4939207;29;20262;-80
2023/02/17 05:29:24;;;;;;;10.40;9.50;;;8.90;99.90;;;;;;4953988;28;20266;-80
2023/02/17 05:31:51;;;;;;;9.70;9.00;;;8.90;99.90;;;;;;4939103;29;20223;-80
2023/02/17 05:34:19;;;;;;;10.00;9.30;;;8.90;99.90;;;;;;4937461;29;20685;-80
2023/02/17 05:36:46;;;;;;;9.97;9.17;;;8.90;99.90;;;;;;4935006;29;20200;-80
2023/02/17 05:39:13;;;;;;;10.30;9.60;;;8.90;99.90;;;;;;4938569;29;20622;-79
2023/02/17 05:41:39;;;;;;;10.57;9.67;;;8.90;99.90;;;;;;4934434;29;20725;-80
2023/02/17 05:44:06;;;;;;;11.23;10.33;;;8.90;99.90;;;;;;4948703;28;20230;-79
2023/02/17 05:46:33;;;;;;;10.83;9.60;;;8.90;99.90;;;;;;4939148;29;20670;-80
2023/02/17 05:49:00;;;;;;;10.83;10.03;;;8.90;99.90;;;;;;4939374;29;20199;-81
2023/02/17 05:51:28;;;;;;;10.70;9.80;;;8.90;99.90;;;;;;4938599;29;20223;-79
2023/02/17 05:53:55;;;;;;;10.50;9.80;;;8.90;99.90;;;;;;4935194;29;20208;-80
2023/02/17 05:56:22;;;;;;;11.00;10.10;;;8.90;99.90;;;;;;4938414;29;20258;-80
2023/02/17 05:58:48;;;;;;;11.50;10.50;;;9.00;99.90;;;;;;4938114;29;20282;-80
2023/02/17 06:01:15;;;;;;;10.80;10.00;;;9.00;99.90;;;;;;4937117;29;20618;-80
2023/02/17 06:03:42;;;;;;;10.80;10.00;;;9.00;99.90;;;;;;4934434;29;20583;-79
2023/02/17 06:06:09;;;;;;;10.50;9.60;;;9.10;99.90;;;;;;4936341;29;20210;-79
2023/02/17 06:08:37;;;;;;;10.80;9.80;;;9.00;99.90;;;;;;4938828;29;20251;-81
2023/02/17 06:11:04;;;;;;;10.20;9.50;;;9.10;99.90;;;;;;4938728;29;20274;-80
2023/02/17 06:13:31;;;;;;;10.60;9.80;;;9.10;99.90;;;;;;4935824;29;20231;-79
2023/02/17 06:15:58;;;;;;;10.47;9.77;;;9.00;99.90;;;;;;4931683;29;20255;-81
2023/02/17 06:18:25;;;;;;;10.30;9.50;;;9.00;99.90;;;;;;4953723;29;20199;-81
2023/02/17 06:20:54;;;;;;;18.93;14.73;;;9.00;99.90;;;;;;4939952;29;20225;-81
2023/02/17 06:23:21;;;;;;;13.57;12.13;;;9.00;99.90;;;;;;4952858;28;20223;-81
2023/02/17 06:25:49;;;;;;;12.13;11.03;;;9.10;99.90;;;;;;4931903;29;20208;-78
2023/02/17 06:28:16;;;;;;;11.33;10.43;;;9.10;99.90;;;;;;4952671;28;20305;-79
2023/02/17 06:30:43;;;;;;;10.80;10.00;;;9.00;99.90;;;;;;4937882;29;20279;-79
2023/02/17 06:33:10;;;;;;;11.20;10.20;;;9.00;99.90;;;;;;4938102;29;20250;-81
2023/02/17 06:35:37;;;;;;;11.40;10.60;;;9.10;99.90;;;;;;4936304;29;20199;-82
2023/02/17 06:38:04;;;;;;;11.73;10.83;;;9.10;99.90;;;;;;4939505;29;20693;-81
2023/02/17 06:40:31;;;;;;;11.20;10.40;;;9.10;99.90;;;;;;4949496;28;20748;-80
2023/02/17 06:42:59;;;;;;;11.20;10.40;;;9.10;99.90;;;;;;4932188;29;20280;-78
2023/02/17 06:45:26;;;;;;;11.80;10.70;;;9.20;99.90;;;;;;4936545;29;20203;-81
2023/02/17 06:47:52;;;;;;;10.63;9.73;;;9.20;99.90;;;;;;4934802;29;20215;-81
2023/02/17 06:50:20;;;;;;;10.53;9.83;;;9.20;99.90;;;;;;4939363;29;20204;-80
2023/02/17 06:52:47;;;;;;;11.00;10.10;;;9.30;99.90;;;;;;4934376;29;20615;-83
2023/02/17 06:55:14;;;;;;;9.60;9.00;;;9.30;99.90;;;;;;4935919;29;20251;-82
2023/02/17 06:57:40;;;;;;;9.93;9.13;;;9.30;99.90;;;;;;4954509;28;20292;-83
2023/02/17 07:00:10;;;;;;;10.27;9.27;;;9.40;99.90;;;;;;4939887;29;20206;-81
2023/02/17 07:02:37;;;;;;;10.00;9.20;;;9.40;99.90;;;;;;4930068;29;20244;-82
2023/02/17 07:05:05;;;;;;;9.50;8.90;;;9.50;99.90;;;;;;4937186;29;20231;-83
2023/02/17 07:07:31;;;;;;;10.33;9.50;;;9.50;99.90;;;;;;4932571;29;20220;-84
2023/02/17 07:09:58;;;;;;;10.17;9.30;;;9.50;99.90;;;;;;4935693;29;20207;-84
2023/02/17 07:12:27;;;;;;;10.60;9.70;;;9.60;99.90;;;;;;4932823;29;20311;-83
2023/02/17 07:14:54;;;;;;;10.33;9.47;;;9.60;99.90;;;;;;4936951;29;20191;-81
2023/02/17 07:17:22;;;;;;;10.10;9.40;;;9.60;99.90;;;;;;4932098;29;20195;-81
2023/02/17 07:19:49;;;;;;;9.97;9.27;;;9.70;99.90;;;;;;4933765;29;20210;-81
2023/02/17 07:22:16;;;;;;;9.87;9.10;;;9.70;99.90;;;;;;4938424;29;20233;-74
2023/02/17 07:24:43;;;;;;;9.80;9.10;;;9.80;99.90;;;;;;4927929;28;20735;-80
2023/02/17 07:27:10;;;;;;;10.83;9.77;;;9.90;99.90;;;;;;4935609;29;20222;-81
2023/02/17 07:29:37;;;;;;;10.10;9.30;;;9.90;99.90;;;;;;4950913;28;20207;-81
2023/02/17 07:32:04;;;;;;;9.73;9.00;;;9.90;99.90;;;;;;4931117;29;20269;-78
2023/02/17 07:34:32;;;;;;;9.87;9.17;;;10.00;99.90;;;;;;4932450;29;20207;-78
2023/02/17 07:36:59;;;;;;;10.20;9.47;;;10.00;99.90;;;;;;4945653;29;20294;-79
2023/02/17 07:39:26;;;;;;;9.63;8.97;;;10.00;99.90;;;;;;4935895;29;20266;-81
2023/02/17 07:41:53;;;;;;;9.40;8.60;;;10.10;99.90;;;;;;4950662;28;20251;-79
2023/02/17 07:44:20;;;;;;;9.20;8.50;;;10.20;99.90;;;;;;4934215;29;20203;-81
2023/02/17 07:46:46;;;;;;;10.20;9.50;;;10.20;99.90;;;;;;4945883;28;20911;-79
2023/02/17 07:49:13;;;;;;;9.70;8.83;;;10.30;99.90;;;;;;4933207;29;20720;-79
2023/02/17 07:51:41;;;;;;;9.93;9.13;;;10.30;99.90;;;;;;4934352;29;20228;-79
2023/02/17 07:54:08;;;;;;;9.23;8.60;;;10.40;99.90;;;;;;4928343;29;20565;-77
2023/02/17 07:56:35;;;;;;;10.90;10.10;;;10.50;99.90;;;;;;4949014;28;20204;-78
2023/02/17 07:59:02;;;;;;;10.73;9.93;;;10.60;99.90;;;;;;4949220;28;20638;-79
2023/02/17 08:01:29;;;;;;;10.17;9.47;;;10.70;99.90;;;;;;4949319;28;20257;-79
2023/02/17 08:03:56;;;;;;;10.90;10.00;;;10.70;99.90;;;;;;4930474;29;20943;-79
2023/02/17 08:06:25;;;;;;;10.43;9.73;;;10.80;99.90;;;;;;4933207;29;20248;-79
2023/02/17 08:14:26;;;;;;;12.07;11.07;;;10.90;99.90;;;;;;4935326;29;20573;-80
2023/02/17 08:16:53;;;;;;;11.97;10.93;;;10.90;99.90;;;;;;4949625;29;20822;-80
2023/02/17 08:19:21;;;;;;;12.40;11.10;;;11.00;99.90;;;;;;4936862;29;20555;-79
2023/02/17 08:21:48;;;;;;;11.77;10.77;;;11.00;99.90;;;;;;4948738;28;20308;-79
2023/02/17 08:24:18;;;;;;;12.17;11.07;;;11.00;99.90;;;;;;4936144;29;20205;-80
2023/02/17 08:26:45;;;;;;;12.07;11.07;;;11.10;99.90;;;;;;4929747;29;20225;-80
2023/02/17 08:29:12;;;;;;;12.23;11.23;;;11.20;99.90;;;;;;4936770;29;20225;-80
2023/02/17 08:31:39;;;;;;;12.67;11.53;;;11.30;99.90;;;;;;4935872;29;20290;-79
2023/02/17 08:34:10;;;;;;;11.63;10.73;;;11.40;99.90;;;;;;4950794;28;20269;-79
2023/02/17 08:36:37;;;;;;;11.87;10.97;;;11.50;99.90;;;;;;4936703;29;20206;-80
2023/02/17 08:39:04;;;;;;;11.37;10.47;;;11.70;99.90;;;;;;4936646;29;20203;-80
2023/02/17 08:41:35;;;;;;;7.60;7.00;;;12.00;99.90;;;;;;4933393;29;20228;-80
2023/02/17 08:44:04;;;;;;;6.90;6.27;;;12.30;99.90;;;;;;4935178;29;20270;-80
2023/02/17 08:46:31;;;;;;;8.87;6.43;;;12.50;99.90;;;;;;4940625;29;20203;-79
2023/02/17 08:48:58;;;;;;;5.53;5.10;;;12.60;99.90;;;;;;4939833;29;20255;-81
2023/02/17 08:51:25;;;;;;;5.33;4.93;;;12.80;99.90;;;;;;4937354;29;20242;-79
2023/02/17 08:53:55;;;;;;;6.80;5.70;;;12.80;99.90;;;;;;4934904;28;20215;-79
2023/02/17 08:56:22;;;;;;;6.43;5.63;;;12.80;99.90;;;;;;4940480;29;20195;-79
2023/02/17 08:58:50;;;;;;;5.50;5.00;;;12.80;99.90;;;;;;4938449;29;20217;-80
2023/02/17 09:01:18;;;;;;;7.53;6.03;;;12.90;99.90;;;;;;4940003;29;20248;-79
2023/02/17 09:03:45;;;;;;;10.87;8.20;;;12.90;99.90;;;;;;4938925;29;20223;-79
2023/02/17 09:06:14;;;;;;;11.93;8.80;;;12.90;99.90;;;;;;4937865;29;20196;-78
2023/02/17 09:08:41;;;;;;;10.10;7.97;;;12.90;99.90;;;;;;4941298;29;20274;-79
2023/02/17 09:11:07;;;;;;;12.67;11.40;;;13.00;99.90;;;;;;4954342;28;20284;-79
2023/02/17 09:13:35;;;;;;;12.67;11.57;;;13.10;99.90;;;;;;4937208;29;20263;-79
2023/02/17 09:16:03;;;;;;;8.37;6.47;;;13.20;99.90;;;;;;4938414;29;20199;-80
2023/02/17 09:18:30;;;;;;;22.07;12.00;;;13.30;99.90;;;;;;4939872;29;20274;-80
2023/02/17 09:20:59;;;;;;;28.47;21.33;;;13.40;99.90;;;;;;4936690;29;20235;-78
2023/02/17 09:23:26;;;;;;;37.40;24.93;;;13.40;99.90;;;;;;4938713;29;20196;-80
2023/02/17 09:26:05;;;;;;;22.03;14.23;;;13.50;99.90;;;;;;4937192;29;20234;-84
2023/02/17 09:28:35;;;;;;;8.30;7.17;;;13.50;99.90;;;;;;4930761;29;20223;-81
2023/02/17 09:31:10;;;;;;;8.73;7.83;;;13.40;99.90;;;;;;4938451;29;20215;-82
2023/02/17 09:33:37;;;;;;;8.43;6.53;;;13.40;99.90;;;;;;4935227;29;20262;-80
2023/02/17 09:36:05;;;;;;;10.17;9.50;;;13.30;99.90;;;;;;4950261;29;20209;-81
2023/02/17 09:38:32;;;;;;;7.03;3.90;;;13.20;99.90;;;;;;4931215;29;20208;-82
2023/02/17 09:41:03;;;;;;;5.97;5.40;;;13.20;99.90;;;;;;4952260;29;20253;-78
2023/02/17 09:43:32;;;;;;;7.33;5.60;;;13.10;99.90;;;;;;4939342;29;20204;-79
2023/02/17 09:46:02;;;;;;;5.73;5.23;;;13.00;99.90;;;;;;4937885;29;20799;-79
2023/02/17 09:48:32;;;;;;;6.00;5.50;;;12.90;99.90;;;;;;4936001;29;20271;-78
2023/02/17 09:51:04;;;;;;;7.87;7.17;;;12.80;99.90;;;;;;4937438;29;20229;-78
2023/02/17 09:53:37;;;;;;;7.10;6.50;;;12.80;99.90;;;;;;4936261;29;20203;-78
2023/02/17 09:56:07;;;;;;;9.33;8.63;;;12.80;99.90;;;;;;4936619;29;20200;-80
2023/02/17 09:58:37;;;;;;;9.63;8.73;;;12.70;99.90;;;;;;4937330;29;20729;-79
2023/02/17 10:01:10;;;;;;;8.87;8.17;;;12.70;99.90;;;;;;4936175;29;20236;-77
2023/02/17 10:03:42;;;;;;;9.37;8.77;;;12.80;99.90;;;;;;4938102;29;20203;-79
2023/02/17 10:06:14;;;;;;;9.40;8.60;;;12.80;99.90;;;;;;4952299;28;20258;-81
2023/02/17 10:08:44;;;;;;;9.33;8.63;;;12.80;99.90;;;;;;4933689;29;20211;-78
2023/02/17 10:11:18;;;;;;;9.53;8.83;;;12.90;99.90;;;;;;4932136;29;20245;-78
2023/02/17 10:13:46;;;;;;;9.77;8.77;;;13.00;99.90;;;;;;4947504;28;20586;-79
2023/02/17 10:16:20;;;;;;;9.27;8.67;;;13.10;99.90;;;;;;4937096;29;20221;-78
2023/02/17 10:18:51;;;;;;;9.70;9.00;;;13.20;99.90;;;;;;4937949;29;20195;-78
2023/02/17 10:21:22;;;;;;;9.60;9.00;;;13.30;99.90;;;;;;4931765;29;20316;-79
2023/02/17 10:23:50;;;;;;;9.60;8.80;;;13.50;99.90;;;;;;4934187;29;20203;-77
2023/02/17 10:26:26;;;;;;;9.43;8.73;;;13.60;99.90;;;;;;4931354;29;20638;-79
2023/02/17 10:28:55;;;;;;;10.50;9.80;;;13.70;99.90;;;;;;4933157;29;20223;-80
2023/02/17 10:31:34;;;;;;;8.87;8.37;;;13.80;99.90;;;;;;4933383;29;20255;-79
2023/02/17 10:34:05;;;;;;;9.60;8.90;;;13.90;99.90;;;;;;4932725;29;20261;-80
2023/02/17 10:36:42;;;;;;;8.53;8.03;;;14.00;99.90;;;;;;4944770;29;20277;-79
2023/02/17 10:39:21;;;;;;;9.77;9.07;;;14.10;99.90;;;;;;4936767;29;20198;-81
2023/02/17 10:42:20;;;;;;;8.87;8.27;;;14.20;99.90;;;;;;4939107;29;20241;-80
2023/02/17 10:44:48;;;;;;;9.27;8.67;;;14.20;99.90;;;;;;4940212;29;20211;-79
2023/02/17 10:47:15;;;;;;;9.30;8.70;;;14.30;99.90;;;;;;4938224;29;20678;-79
2023/02/17 10:49:46;;;;;;;9.33;8.60;;;14.40;99.90;;;;;;4938603;29;20212;-77
2023/02/17 10:52:16;;;;;;;9.60;8.90;;;14.50;99.90;;;;;;4938215;29;20234;-78
2023/02/17 10:54:50;;;;;;;9.40;8.80;;;14.50;99.90;;;;;;4953822;28;20739;-78
2023/02/17 10:57:19;;;;;;;8.37;7.83;;;14.50;99.90;;;;;;4945909;28;20202;-78
2023/02/17 10:59:48;;;;;;;8.83;8.27;;;14.50;99.90;;;;;;4951981;28;20233;-78
2023/02/17 11:02:19;;;;;;;9.10;8.50;;;14.40;99.90;;;;;;4936504;29;20229;-77
2023/02/17 11:04:49;;;;;;;9.40;8.60;;;14.30;99.90;;;;;;4938848;29;20201;-78
2023/02/17 11:07:18;;;;;;;9.60;9.00;;;14.30;99.90;;;;;;4922616;29;20205;-78
2023/02/17 11:09:50;;;;;;;8.93;8.37;;;14.40;99.90;;;;;;4936774;29;20230;-81
2023/02/17 11:12:22;;;;;;;8.53;8.03;;;14.40;99.90;;;;;;4935713;29;20223;-81
2023/02/17 11:14:51;;;;;;;8.20;7.70;;;14.50;99.90;;;;;;4931098;29;20211;-79
2023/02/17 11:17:26;;;;;;;7.60;7.10;;;14.70;99.90;;;;;;4943416;28;20288;-80
2023/02/17 11:20:02;;;;;;;7.07;6.47;;;14.80;99.90;;;;;;4935726;29;20193;-80
2023/02/17 11:22:35;;;;;;;8.17;7.57;;;15.00;99.90;;;;;;4935236;29;20246;-79
2023/02/17 11:25:06;;;;;;;6.37;5.87;;;15.10;99.90;;;;;;4932417;29;20225;-81
2023/02/17 11:27:33;;;;;;;5.30;4.90;;;15.20;99.90;;;;;;4949901;28;20206;-81
2023/02/17 11:30:09;;;;;;;5.60;5.20;;;15.20;99.90;;;;;;4935005;29;20282;-80
2023/02/17 11:32:36;;;;;;;5.63;5.30;;;15.20;99.90;;;;;;4934091;29;20234;-78
2023/02/17 11:35:18;;;;;;;5.17;4.77;;;15.20;99.90;;;;;;4933695;29;20206;-80
2023/02/17 11:37:45;;;;;;;4.33;4.03;;;15.20;99.90;;;;;;4935894;29;20212;-81
2023/02/17 11:40:25;;;;;;;4.40;4.10;;;15.20;99.90;;;;;;4930811;29;20203;-83
2023/02/17 11:42:59;;;;;;;3.90;3.60;;;15.30;99.90;;;;;;4937581;29;20660;-81
2023/02/17 11:45:30;;;;;;;3.80;3.50;;;15.30;99.90;;;;;;4927642;29;20201;-79
2023/02/17 11:48:11;;;;;;;4.77;4.40;;;15.30;99.90;;;;;;4933688;29;20207;-79
2023/02/17 11:50:48;;;;;;;4.90;4.60;;;15.30;99.90;;;;;;4935358;29;20222;-81
2023/02/17 11:53:24;;;;;;;4.93;4.63;;;15.20;99.90;;;;;;4933665;29;20214;-79
2023/02/17 11:56:02;;;;;;;5.30;5.00;;;15.20;99.90;;;;;;4934812;29;20211;-80
2023/02/17 11:58:47;;;;;;;5.50;5.00;;;15.30;99.90;;;;;;4934833;29;20218;-82
2023/02/17 12:01:29;;;;;;;5.67;5.27;;;15.10;99.90;;;;;;4934718;29;20231;-81
2023/02/17 12:04:15;;;;;;;5.73;5.30;;;15.00;99.90;;;;;;4931627;29;20206;-81
2023/02/17 12:06:58;;;;;;;5.90;5.50;;;14.90;99.90;;;;;;4935095;29;20197;-81
2023/02/17 12:09:29;;;;;;;6.47;6.07;;;14.80;99.90;;;;;;4931799;29;20222;-80
2023/02/17 12:12:05;;;;;;;6.80;6.20;;;14.70;99.90;;;;;;4933994;29;20223;-79
2023/02/17 12:14:44;;;;;;;7.40;6.90;;;14.70;99.90;;;;;;4934640;29;20221;-78
2023/02/17 12:17:17;;;;;;;4.40;3.33;;;14.60;99.90;;;;;;4934642;29;20572;-80
2023/02/17 12:19:57;;;;;;;2.53;2.03;;;14.50;99.90;;;;;;4931006;29;20259;-79
2023/02/17 12:22:32;;;;;;;6.83;6.40;;;14.50;99.90;;;;;;4922081;29;20214;-79
2023/02/17 12:25:24;;;;;;;8.03;7.43;;;14.30;99.90;;;;;;4936828;29;20261;-79
2023/02/17 12:28:03;;;;;;;8.43;7.77;;;14.20;99.90;;;;;;4936932;29;20210;-79
2023/02/17 12:30:46;;;;;;;8.87;8.23;;;14.20;99.90;;;;;;4936693;29;20216;-80
2023/02/17 12:33:29;;;;;;;8.83;8.23;;;14.20;99.90;;;;;;4937951;29;20205;-80
2023/02/17 12:36:01;;;;;;;8.87;8.07;;;14.20;99.90;;;;;;4938034;29;20200;-79
2023/02/17 12:38:32;;;;;;;8.80;8.20;;;14.30;99.90;;;;;;4938410;29;20712;-80
2023/02/17 12:41:07;;;;;;;8.40;7.90;;;14.20;99.90;;;;;;4950902;28;20228;-78
2023/02/17 12:43:40;;;;;;;8.80;8.30;;;14.20;99.90;;;;;;4936889;29;20243;-81
2023/02/17 12:46:11;;;;;;;8.40;7.90;;;14.10;99.90;;;;;;4935204;29;20213;-80
2023/02/17 12:48:42;;;;;;;9.13;8.53;;;14.10;99.90;;;;;;4951515;28;20258;-79
2023/02/17 12:51:15;;;;;;;9.00;8.30;;;14.00;99.90;;;;;;4950218;28;20292;-79
2023/02/17 12:53:49;;;;;;;8.07;7.57;;;14.00;99.90;;;;;;4937651;29;20205;-80
2023/02/17 12:56:42;;;;;;;7.97;7.50;;;13.90;99.90;;;;;;4952394;28;20203;-81
2023/02/17 12:59:15;;;;;;;8.90;8.40;;;13.90;99.90;;;;;;4952466;29;20388;-80
2023/02/17 13:01:54;;;;;;;8.97;8.40;;;13.90;99.90;;;;;;4935106;29;20228;-80
2023/02/17 13:04:28;;;;;;;9.13;8.63;;;13.80;99.90;;;;;;4933808;29;20193;-82
2023/02/17 13:07:07;;;;;;;8.73;8.23;;;13.90;99.90;;;;;;4939295;29;20678;-77
2023/02/17 13:09:37;;;;;;;8.60;8.10;;;14.00;99.90;;;;;;4954052;28;20251;-79
2023/02/17 13:12:09;;;;;;;8.50;8.00;;;14.10;99.90;;;;;;4939208;29;20553;-78
2023/02/17 13:14:42;;;;;;;8.50;8.00;;;14.10;99.90;;;;;;4936525;29;20218;-80
2023/02/17 13:17:26;;;;;;;8.77;8.27;;;14.20;99.90;;;;;;4937532;29;20279;-77
2023/02/17 13:20:26;;;;;;;8.27;7.67;;;14.30;99.90;;;;;;4937420;29;20203;-78
2023/02/17 13:23:06;;;;;;;8.50;8.00;;;14.40;99.90;;;;;;4934218;29;20210;-76
2023/02/17 13:25:35;;;;;;;6.37;6.07;;;14.60;99.90;;;;;;4937173;29;20685;-77
2023/02/17 13:28:32;;;;;;;7.60;7.10;;;14.60;99.90;;;;;;4952648;28;20209;-81
2023/02/17 13:31:13;;;;;;;7.10;6.70;;;14.60;99.90;;;;;;4937529;29;20304;-78
2023/02/17 13:33:44;;;;;;;7.40;6.93;;;14.60;99.90;;;;;;4953057;28;20217;-77
2023/02/17 13:36:19;;;;;;;6.80;6.40;;;14.70;99.90;;;;;;4933987;29;20206;-78
2023/02/17 13:39:00;;;;;;;6.60;6.20;;;14.60;99.90;;;;;;4937156;29;20233;-79
2023/02/17 13:41:33;;;;;;;6.97;6.47;;;14.50;99.90;;;;;;4937128;29;20276;-81
2023/02/17 13:44:18;;;;;;;6.37;6.07;;;14.50;99.90;;;;;;4935491;29;20280;-80
2023/02/17 13:46:46;;;;;;;7.00;6.60;;;14.50;99.90;;;;;;4927436;29;20674;-79
2023/02/17 13:49:38;;;;;;;8.10;7.70;;;14.40;99.90;;;;;;4935394;29;20219;-81
2023/02/17 13:52:11;;;;;;;8.20;7.60;;;14.40;99.90;;;;;;4933409;29;20313;-80
2023/02/17 13:55:05;;;;;;;8.10;7.60;;;14.40;99.90;;;;;;4938191;29;20206;-82
2023/02/17 13:57:35;;;;;;;8.73;8.13;;;14.30;99.90;;;;;;4931605;29;20412;-79
2023/02/17 14:00:10;;;;;;;7.40;6.90;;;14.30;99.90;;;;;;4931008;29;20209;-79
2023/02/17 14:02:46;;;;;;;7.70;7.30;;;14.40;99.90;;;;;;4939024;29;20237;-81
2023/02/17 14:05:18;;;;;;;8.20;7.70;;;14.40;99.90;;;;;;4936317;29;20207;-80
2023/02/17 14:07:47;;;;;;;7.97;7.57;;;14.40;99.90;;;;;;4939775;29;20320;-79
2023/02/17 14:10:18;;;;;;;7.70;7.30;;;14.50;99.90;;;;;;4937341;29;20299;-80
2023/02/17 14:12:47;;;;;;;8.50;7.90;;;14.50;99.90;;;;;;4953993;28;20637;-79
2023/02/17 14:15:16;;;;;;;8.47;7.90;;;14.50;99.90;;;;;;4938091;29;20233;-79
2023/02/17 14:17:43;;;;;;;8.10;7.60;;;14.50;99.90;;;;;;4932203;29;20203;-79
2023/02/17 14:20:25;;;;;;;8.43;7.83;;;14.60;99.90;;;;;;4936213;29;20236;-78
2023/02/17 14:23:00;;;;;;;8.17;7.67;;;14.70;99.90;;;;;;4932531;29;20210;-79
2023/02/17 14:25:28;;;;;;;8.73;8.23;;;14.80;99.90;;;;;;4936897;29;20210;-79
2023/02/17 14:27:57;;;;;;;8.20;7.67;;;14.80;99.90;;;;;;4928068;29;20250;-81
2023/02/17 14:30:48;;;;;;;7.60;7.20;;;14.80;99.90;;;;;;4953796;29;20311;-79
2023/02/17 14:33:25;;;;;;;8.37;7.87;;;14.70;99.90;;;;;;4924140;29;20212;-83
2023/02/17 14:35:54;;;;;;;8.27;7.67;;;14.70;99.90;;;;;;4920028;29;20202;-80
2023/02/17 14:38:25;;;;;;;7.93;7.33;;;14.70;99.90;;;;;;4917384;29;20205;-81
2023/02/17 14:40:54;;;;;;;4.13;3.93;;;14.60;99.90;;;;;;4913468;29;20231;-81
2023/02/17 14:43:23;;;;;;;1.83;1.73;;;14.60;99.90;;;;;;4897002;29;20200;-81
2023/02/17 14:45:50;;;;;;;2.53;2.07;;;14.50;99.90;;;;;;4897134;29;20256;-80
2023/02/17 14:48:17;;;;;;;9.37;8.87;;;14.40;99.90;;;;;;4897798;29;20270;-81
2023/02/17 14:50:45;;;;;;;8.10;7.67;;;14.40;99.90;;;;;;4897073;29;20293;-81
2023/02/17 14:53:27;;;;;;;7.90;7.50;;;14.20;99.90;;;;;;4898029;29;20208;-79
2023/02/17 14:55:58;;;;;;;7.60;7.20;;;14.20;99.90;;;;;;4898290;29;20201;-82
2023/02/17 14:58:31;;;;;;;7.67;7.27;;;14.20;99.90;;;;;;4897417;29;20204;-77
2023/02/17 15:00:58;;;;;;;8.07;7.47;;;14.20;99.90;;;;;;4897361;29;20221;-83
2023/02/17 15:03:25;;;;;;;7.67;7.07;;;14.20;99.90;;;;;;4915980;29;20865;-82
2023/02/17 15:05:52;;;;;;;7.40;7.00;;;14.20;99.90;;;;;;4901512;29;20245;-82
2023/02/17 15:08:22;;;;;;;7.90;7.30;;;14.30;99.90;;;;;;4906597;29;20234;-83
2023/02/17 15:10:51;;;;;;;8.20;7.70;;;14.40;99.90;;;;;;4904564;29;20217;-83
2023/02/17 15:21:21;;;;;;;7.97;7.47;;;14.30;99.90;;;;;;4877817;29;20259;-81
2023/02/17 15:23:48;;;;;;;8.30;7.80;;;14.20;99.90;;;;;;4893229;29;20233;-81
2023/02/17 15:26:14;;;;;;;8.20;7.70;;;14.10;99.90;;;;;;4893772;29;20228;-79
2023/02/17 15:28:41;;;;;;;8.40;7.90;;;14.10;99.90;;;;;;4910344;29;20266;-79
2023/02/17 15:31:24;;;;;;;8.40;7.80;;;14.10;99.90;;;;;;4910540;29;20700;-82
2023/02/17 15:52:12;;;;;;;8.10;7.60;;;13.90;99.90;;;;;;4921018;29;20243;-80
2023/02/17 15:54:41;;;;;;;8.20;7.70;;;13.90;99.90;;;;;;4917522;29;20204;-80
2023/02/17 15:57:15;;;;;;;8.00;7.50;;;13.90;99.90;;;;;;4921994;29;20188;-80
2023/02/17 15:59:42;;;;;;;8.70;8.10;;;13.90;99.90;;;;;;4920344;29;20213;-81
2023/02/17 16:02:18;;;;;;;8.47;7.77;;;13.80;99.90;;;;;;4922178;29;20770;-79
2023/02/17 16:04:44;;;;;;;5.30;4.90;;;13.80;99.90;;;;;;4917481;29;20205;-80
2023/02/17 16:07:11;;;;;;;5.23;4.90;;;13.70;99.90;;;;;;4918826;29;20223;-79
2023/02/17 16:09:42;;;;;;;4.73;4.43;;;13.70;99.90;;;;;;4916815;29;20200;-80
2023/02/17 16:12:17;;;;;;;3.47;2.30;;;13.70;99.90;;;;;;4918798;29;20231;-79
2023/02/17 16:14:44;;;;;;;6.27;5.77;;;13.70;99.90;;;;;;4919152;29;20209;-80
2023/02/17 16:17:14;;;;;;;2.73;2.53;;;13.60;99.90;;;;;;4919972;29;20240;-80
2023/02/17 16:19:43;;;;;;;2.80;2.13;;;13.60;99.90;;;;;;4918697;29;20207;-80
2023/02/17 16:22:10;;;;;;;2.93;2.63;;;13.60;99.90;;;;;;4919648;29;20239;-79
2023/02/17 16:24:37;;;;;;;2.33;2.13;;;13.50;99.90;;;;;;4918225;29;20225;-80
2023/02/17 16:27:07;;;;;;;2.23;2.03;;;13.50;99.90;;;;;;4918705;29;20200;-80
2023/02/17 16:29:34;;;;;;;3.60;3.40;;;13.50;99.90;;;;;;4917970;29;20566;-79
2023/02/17 16:32:00;;;;;;;3.53;2.37;;;13.40;99.90;;;;;;4918840;29;20279;-80
2023/02/17 16:34:31;;;;;;;4.63;4.30;;;13.50;99.90;;;;;;4916819;29;20663;-80